createdAt,value
2019-04-25T00:02:38.892Z,13.66
2019-04-25T00:05:11.236Z,13.70
2019-04-25T00:07:42.490Z,13.55
2019-04-25T00:10:13.780Z,13.59
2019-04-25T00:12:43.572Z,13.49
2019-04-25T00:15:13.353Z,13.45
2019-04-25T00:17:43.390Z,13.17
2019-04-25T00:20:12.855Z,13.33
2019-04-25T00:22:53.393Z,13.39
2019-04-25T00:25:45.144Z,13.38
2019-04-25T00:28:11.669Z,13.28
2019-04-25T00:30:40.916Z,13.12
2019-04-25T00:33:11.647Z,13.13
2019-04-25T00:35:42.301Z,12.93
2019-04-25T00:38:10.414Z,12.94
2019-04-25T00:40:39.218Z,12.83
2019-04-25T00:43:07.602Z,12.76
2019-04-25T00:45:36.226Z,12.87
2019-04-25T00:48:04.781Z,12.79
2019-04-25T00:50:33.406Z,12.80
2019-04-25T00:53:01.855Z,12.88
2019-04-25T00:55:31.474Z,12.73
2019-04-25T00:58:09.205Z,12.86
2019-04-25T01:00:59.221Z,12.85
2019-04-25T01:03:29.197Z,12.87
2019-04-25T01:05:57.717Z,12.82
2019-04-25T01:08:25.844Z,12.89
2019-04-25T01:10:54.286Z,12.87
2019-04-25T01:13:22.932Z,12.88
2019-04-25T01:15:52.884Z,12.85
2019-04-25T01:18:23.174Z,12.71
2019-04-25T01:20:53.623Z,12.62
2019-04-25T01:23:23.717Z,12.71
2019-04-25T01:25:53.721Z,12.81
2019-04-25T01:28:24.327Z,12.78
2019-04-25T01:30:54.776Z,12.67
2019-04-25T01:33:25.024Z,12.51
2019-04-25T01:36:03.459Z,12.66
2019-04-25T01:38:38.990Z,12.61
2019-04-25T01:41:34.228Z,12.66
2019-04-25T01:44:15.122Z,12.65
2019-04-25T01:46:44.269Z,12.54
2019-04-25T01:49:13.993Z,12.44
2019-04-25T01:51:43.715Z,12.22
2019-04-25T01:54:13.926Z,12.27
2019-04-25T01:56:44.162Z,12.31
2019-04-25T01:59:13.533Z,12.10
2019-04-25T02:01:44.034Z,12.13
2019-04-25T02:04:13.260Z,12.26
2019-04-25T02:06:43.402Z,12.25
2019-04-25T02:09:14.113Z,11.99
2019-04-25T02:12:01.960Z,11.97
2019-04-25T02:14:30.734Z,11.75
2019-04-25T02:16:59.145Z,11.87
2019-04-25T02:19:27.396Z,12.00
2019-04-25T02:21:56.515Z,12.00
2019-04-25T02:24:24.735Z,11.74
2019-04-25T02:26:54.814Z,11.99
2019-04-25T02:29:23.598Z,11.81
2019-04-25T02:31:54.671Z,11.97
2019-04-25T02:34:21.970Z,12.00
2019-04-25T02:36:50.235Z,11.96
2019-04-25T02:39:19.199Z,11.86
2019-04-25T02:41:47.431Z,11.65
2019-04-25T02:44:15.879Z,11.20
2019-04-25T02:47:19.080Z,11.16
2019-04-25T02:50:08.591Z,10.94
2019-04-25T02:52:38.391Z,11.24
2019-04-25T02:55:10.735Z,10.99
2019-04-25T02:57:38.254Z,10.59
2019-04-25T03:00:09.535Z,10.76
2019-04-25T03:02:38.294Z,10.78
2019-04-25T03:05:09.815Z,10.87
2019-04-25T03:07:37.308Z,10.95
2019-04-25T03:10:09.718Z,10.88
2019-04-25T03:12:38.085Z,10.83
2019-04-25T03:15:08.372Z,10.58
2019-04-25T03:17:36.704Z,10.39
2019-04-25T03:20:24.567Z,10.42
2019-04-25T03:22:54.709Z,10.52
2019-04-25T03:25:24.845Z,10.70
2019-04-25T03:27:54.116Z,10.68
2019-04-25T03:30:25.266Z,10.67
2019-04-25T03:32:55.950Z,10.40
2019-04-25T03:35:23.342Z,10.30
2019-04-25T03:38:09.996Z,10.30
2019-04-25T03:40:56.854Z,10.26
2019-04-25T03:43:39.124Z,10.50
2019-04-25T03:46:08.248Z,10.32
2019-04-25T03:48:37.174Z,10.16
2019-04-25T03:51:06.753Z,10.29
2019-04-25T03:53:35.763Z,10.37
2019-04-25T03:56:05.834Z,10.40
2019-04-25T03:58:34.875Z,10.03
2019-04-25T04:01:05.949Z,10.09
2019-04-25T04:03:33.977Z,9.90
2019-04-25T04:06:04.384Z,10.11
2019-04-25T04:08:34.337Z,9.98
2019-04-25T04:11:05.352Z,10.11
2019-04-25T04:13:34.282Z,10.03
2019-04-25T04:16:03.389Z,10.05
2019-04-25T04:18:44.209Z,9.99
2019-04-25T04:21:30.825Z,9.98
2019-04-25T04:24:25.838Z,10.15
2019-04-25T04:27:09.071Z,9.98
2019-04-25T04:29:38.116Z,9.87
2019-04-25T04:32:06.939Z,9.87
2019-04-25T04:34:35.218Z,9.88
2019-04-25T04:37:03.736Z,9.95
2019-04-25T04:39:33.697Z,10.25
2019-04-25T04:42:03.691Z,10.19
2019-04-25T04:44:34.277Z,9.94
2019-04-25T04:47:03.962Z,9.95
2019-04-25T04:49:34.128Z,9.81
2019-04-25T04:52:06.217Z,9.88
2019-04-25T04:54:34.295Z,9.75
2019-04-25T04:57:16.773Z,9.99
2019-04-25T04:59:33.810Z,10.01
2019-04-25T05:02:24.196Z,9.91
2019-04-25T05:05:30.702Z,9.92
2019-04-25T05:08:14.996Z,10.02
2019-04-25T05:10:43.299Z,10.15
2019-04-25T05:13:12.136Z,10.22
2019-04-25T05:15:40.794Z,10.56
2019-04-25T05:18:12.196Z,10.70
2019-04-25T05:20:40.603Z,10.68
2019-04-25T05:23:09.038Z,10.62
2019-04-25T05:25:37.472Z,10.59
2019-04-25T05:28:06.460Z,10.89
2019-04-25T05:30:43.764Z,11.10
2019-04-25T05:33:14.452Z,11.38
2019-04-25T05:35:42.107Z,12.01
2019-04-25T05:38:10.799Z,12.39
2019-04-25T05:40:56.021Z,12.33
2019-04-25T05:43:25.804Z,12.61
2019-04-25T05:45:54.175Z,13.05
2019-04-25T05:48:25.058Z,13.06
2019-04-25T05:50:53.792Z,12.67
2019-04-25T05:53:23.859Z,12.30
2019-04-25T05:55:53.955Z,12.64
2019-04-25T05:58:24.079Z,12.44
2019-04-25T06:00:54.368Z,12.58
2019-04-25T06:03:24.847Z,11.89
2019-04-25T06:05:53.344Z,12.70
2019-04-25T06:08:25.543Z,12.76
2019-04-25T06:11:13.807Z,12.63
2019-04-25T06:13:48.433Z,12.62
2019-04-25T06:16:29.764Z,12.84
2019-04-25T06:19:37.172Z,13.37
2019-04-25T06:22:07.661Z,13.39
2019-04-25T06:24:59.277Z,12.83
2019-04-25T06:27:56.468Z,13.18
2019-04-25T06:30:25.997Z,13.39
2019-04-25T06:32:55.343Z,13.73
2019-04-25T06:35:25.138Z,13.57
2019-04-25T06:37:53.991Z,12.69
2019-04-25T06:40:24.183Z,13.21
2019-04-25T06:42:53.614Z,12.91
2019-04-25T06:45:44.162Z,13.55
2019-04-25T06:48:22.557Z,13.66
2019-04-25T06:50:51.273Z,13.12
2019-04-25T06:53:19.421Z,13.11
2019-04-25T06:55:47.924Z,13.84
2019-04-25T06:58:16.822Z,14.26
2019-04-25T07:00:57.159Z,13.81
2019-04-25T07:03:15.645Z,13.29
2019-04-25T07:05:45.042Z,14.00
2019-04-25T07:08:13.585Z,14.31
2019-04-25T07:10:42.234Z,14.12
2019-04-25T07:13:10.480Z,14.12
2019-04-25T07:15:38.896Z,14.15
2019-04-25T07:18:07.201Z,13.90
2019-04-25T07:20:36.730Z,14.36
2019-04-25T07:23:05.327Z,14.73
2019-04-25T07:25:36.824Z,14.86
2019-04-25T07:28:30.205Z,14.56
2019-04-25T07:33:50.767Z,14.87
2019-04-25T07:36:19.096Z,15.07
2019-04-25T07:38:47.467Z,14.94
2019-04-25T07:41:16.378Z,14.91
2019-04-25T07:43:44.672Z,15.57
2019-04-25T07:46:14.260Z,15.09
2019-04-25T07:48:43.837Z,15.90
2019-04-25T07:51:16.192Z,16.44
2019-04-25T07:53:43.642Z,15.27
2019-04-25T07:56:14.238Z,15.63
2019-04-25T07:58:50.493Z,16.32
2019-04-25T08:01:14.779Z,16.04
2019-04-25T08:03:49.257Z,16.33
2019-04-25T08:06:18.373Z,15.60
2019-04-25T08:08:46.618Z,16.65
2019-04-25T08:11:15.119Z,16.85
2019-04-25T08:13:49.130Z,16.42
2019-04-25T08:16:18.651Z,15.99
2019-04-25T08:18:47.747Z,16.25
2019-04-25T08:21:16.062Z,16.30
2019-04-25T08:23:44.351Z,16.72
2019-04-25T08:26:14.163Z,17.15
2019-04-25T08:28:52.015Z,16.91
2019-04-25T08:31:13.572Z,16.64
2019-04-25T08:33:43.775Z,17.12
2019-04-25T08:36:13.703Z,17.28
2019-04-25T08:38:44.416Z,17.92
2019-04-25T08:41:13.901Z,17.96
2019-04-25T08:43:45.026Z,18.59
2019-04-25T08:46:14.005Z,17.74
2019-04-25T08:49:02.196Z,17.61
2019-04-25T08:51:34.807Z,17.78
2019-04-25T08:54:09.618Z,17.61
2019-04-25T08:56:37.955Z,18.95
2019-04-25T08:59:34.078Z,18.07
2019-04-25T09:02:16.931Z,18.93
2019-04-25T09:05:04.129Z,17.98
2019-04-25T09:07:35.433Z,19.02
2019-04-25T09:10:03.627Z,18.66
2019-04-25T09:12:32.816Z,19.04
2019-04-25T09:15:04.150Z,17.98
2019-04-25T09:17:33.177Z,18.89
2019-04-25T09:20:04.020Z,18.73
2019-04-25T09:22:35.029Z,17.93
2019-04-25T09:25:03.825Z,18.10
2019-04-25T09:27:34.315Z,17.97
2019-04-25T09:30:03.924Z,18.17
2019-04-25T09:32:33.823Z,18.73
2019-04-25T09:35:03.820Z,18.66
2019-04-25T09:37:33.619Z,18.43
2019-04-25T09:40:13.995Z,18.97
2019-04-25T09:42:44.771Z,19.05
2019-04-25T09:45:26.987Z,17.96
2019-04-25T09:47:56.821Z,18.50
2019-04-25T09:50:34.306Z,18.45
2019-04-25T09:53:02.469Z,18.99
2019-04-25T09:55:49.019Z,18.91
2019-04-25T09:58:23.866Z,19.71
2019-04-25T10:00:56.601Z,20.53
2019-04-25T10:03:24.736Z,20.33
2019-04-25T10:05:52.983Z,19.15
2019-04-25T10:08:21.239Z,19.61
2019-04-25T10:10:49.406Z,19.17
2019-04-25T10:13:17.568Z,19.38
2019-04-25T10:16:03.147Z,19.51
2019-04-25T10:18:33.533Z,19.59
2019-04-25T10:21:04.273Z,19.94
2019-04-25T10:23:34.225Z,19.52
2019-04-25T10:26:03.864Z,19.46
2019-04-25T10:28:33.642Z,19.23
2019-04-25T10:31:03.576Z,19.87
2019-04-25T10:33:33.745Z,20.43
2019-04-25T10:36:01.912Z,19.86
2019-04-25T10:38:30.379Z,20.06
2019-04-25T10:40:58.745Z,20.08
2019-04-25T10:43:27.400Z,20.46
2019-04-25T10:45:55.812Z,20.46
2019-04-25T10:48:24.249Z,20.29
2019-04-25T10:50:55.466Z,20.27
2019-04-25T10:53:23.255Z,19.98
2019-04-25T10:55:53.174Z,19.94
2019-04-25T10:58:21.826Z,19.90
2019-04-25T11:00:53.027Z,19.96
2019-04-25T11:03:40.731Z,20.08
2019-04-25T11:06:14.138Z,20.03
2019-04-25T11:08:42.366Z,20.27
2019-04-25T11:11:10.886Z,20.35
2019-04-25T11:13:39.590Z,20.70
2019-04-25T11:16:08.085Z,20.72
2019-04-25T11:18:36.674Z,20.87
2019-04-25T11:21:06.073Z,20.76
2019-04-25T11:23:34.426Z,21.05
2019-04-25T11:26:03.857Z,20.73
2019-04-25T11:28:33.639Z,20.89
2019-04-25T11:31:05.183Z,20.92
2019-04-25T11:33:34.363Z,20.58
2019-04-25T11:36:04.201Z,20.26
2019-04-25T11:38:41.229Z,20.30
2019-04-25T11:41:14.124Z,20.13
2019-04-25T11:43:45.369Z,20.58
2019-04-25T11:46:14.095Z,20.65
2019-04-25T11:48:44.225Z,20.02
2019-04-25T11:51:13.829Z,20.37
2019-04-25T11:53:45.056Z,20.31
2019-04-25T11:56:13.769Z,20.70
2019-04-25T11:58:44.733Z,20.48
2019-04-25T12:01:13.822Z,20.36
2019-04-25T12:03:42.163Z,20.33
2019-04-25T12:06:11.318Z,20.59
2019-04-25T12:08:39.718Z,20.73
2019-04-25T12:11:08.359Z,20.75
2019-04-25T12:13:36.750Z,21.08
2019-04-25T12:16:05.271Z,21.01
2019-04-25T12:18:35.339Z,21.24
2019-04-25T12:21:04.255Z,21.40
2019-04-25T12:23:33.967Z,21.59
2019-04-25T12:26:03.778Z,21.75
2019-04-25T12:28:33.852Z,21.36
2019-04-25T12:31:02.092Z,21.47
2019-04-25T12:33:30.545Z,21.62
2019-04-25T12:35:58.824Z,21.82
2019-04-25T12:38:27.186Z,21.25
2019-04-25T12:40:55.751Z,21.33
2019-04-25T12:43:25.792Z,21.45
2019-04-25T12:46:03.595Z,21.33
2019-04-25T12:48:31.763Z,21.04
2019-04-25T12:51:00.325Z,21.34
2019-04-25T12:53:28.609Z,21.16
2019-04-25T12:55:56.995Z,21.58
2019-04-25T12:58:25.253Z,22.21
2019-04-25T13:00:58.315Z,22.41
2019-04-25T13:03:25.265Z,23.03
2019-04-25T13:05:54.096Z,23.17
2019-04-25T13:08:24.135Z,23.10
2019-04-25T13:10:54.256Z,22.29
2019-04-25T13:13:24.162Z,22.58
2019-04-25T13:15:53.301Z,22.76
2019-04-25T13:18:21.639Z,22.61
2019-04-25T13:20:49.812Z,22.60
2019-04-25T13:23:18.185Z,22.78
2019-04-25T13:25:46.554Z,22.86
2019-04-25T13:28:25.791Z,22.42
2019-04-25T13:31:21.274Z,22.72
2019-04-25T13:34:01.737Z,22.70
2019-04-25T13:36:30.162Z,22.43
2019-04-25T13:38:58.625Z,22.54
2019-04-25T13:41:26.912Z,22.53
2019-04-25T13:43:55.353Z,22.87
2019-04-25T13:46:26.257Z,22.69
2019-04-25T13:48:54.650Z,22.58
2019-04-25T13:51:24.651Z,22.67
2019-04-25T13:53:54.558Z,22.71
2019-04-25T13:56:25.064Z,22.72
2019-04-25T13:58:54.219Z,22.41
2019-04-25T14:01:24.705Z,22.44
2019-04-25T14:03:54.271Z,22.65
2019-04-25T14:06:22.632Z,22.66
2019-04-25T14:08:50.918Z,22.64
2019-04-25T14:11:20.707Z,22.84
2019-04-25T14:13:51.018Z,22.93
2019-04-25T14:16:43.367Z,22.77
2019-04-25T14:19:34.826Z,22.89
2019-04-25T14:22:04.424Z,23.18
2019-04-25T14:24:34.541Z,22.78
2019-04-25T14:27:03.703Z,22.81
2019-04-25T14:29:32.637Z,22.63
2019-04-25T14:32:01.103Z,22.84
2019-04-25T14:34:29.896Z,22.79
2019-04-25T14:36:58.417Z,23.20
2019-04-25T14:39:27.441Z,23.23
2019-04-25T14:41:55.860Z,23.03
2019-04-25T14:44:24.106Z,23.01
2019-04-25T14:46:52.275Z,22.76
2019-04-25T14:49:20.419Z,22.95
2019-04-25T14:51:48.739Z,23.17
2019-04-25T14:54:23.778Z,23.28
2019-04-25T14:57:08.220Z,22.88
2019-04-25T14:59:36.988Z,23.01
2019-04-25T15:02:05.883Z,23.35
2019-04-25T15:04:35.293Z,23.18
2019-04-25T15:07:03.813Z,23.31
2019-04-25T15:09:32.293Z,23.06
2019-04-25T15:12:00.632Z,23.07
2019-04-25T15:14:29.285Z,23.24
2019-04-25T15:16:57.592Z,23.71
2019-04-25T15:19:25.768Z,23.78
2019-04-25T15:21:53.940Z,23.65
2019-04-25T15:24:22.978Z,23.71
2019-04-25T15:26:52.206Z,23.45
2019-04-25T15:29:20.543Z,23.17
2019-04-25T15:31:55.841Z,23.10
2019-04-25T15:34:19.113Z,23.24
2019-04-25T15:36:56.739Z,23.21
2019-04-25T15:39:59.664Z,23.31
2019-04-25T15:42:49.773Z,23.75
2019-04-25T15:45:37.870Z,24.21
2019-04-25T15:48:06.898Z,24.56
2019-04-25T15:50:35.357Z,24.81
2019-04-25T15:53:03.530Z,24.28
2019-04-25T15:55:32.074Z,23.91
2019-04-25T15:58:00.317Z,23.92
2019-04-25T16:00:35.001Z,23.35
2019-04-25T16:03:03.818Z,23.25
2019-04-25T16:05:32.342Z,23.23
2019-04-25T16:08:00.782Z,22.98
2019-04-25T16:10:29.904Z,23.02
2019-04-25T16:12:58.172Z,23.01
2019-04-25T16:15:27.759Z,22.87
2019-04-25T16:17:56.167Z,22.69
2019-04-25T16:20:24.513Z,22.89
2019-04-25T16:22:52.700Z,22.59
2019-04-25T16:25:20.946Z,22.53
2019-04-25T16:27:50.572Z,22.55
2019-04-25T16:30:21.621Z,22.55
2019-04-25T16:32:49.761Z,22.65
2019-04-25T16:35:18.028Z,22.52
2019-04-25T16:37:46.171Z,22.48
2019-04-25T16:40:14.627Z,22.28
2019-04-25T16:42:42.757Z,22.39
2019-04-25T16:45:11.111Z,22.26
2019-04-25T16:47:40.005Z,22.16
2019-04-25T16:50:08.936Z,22.01
2019-04-25T16:52:37.996Z,21.79
2019-04-25T16:55:08.277Z,21.89
2019-04-25T16:57:37.047Z,21.97
2019-04-25T17:00:08.903Z,21.72
2019-04-25T17:02:39.957Z,21.80
2019-04-25T17:05:09.185Z,21.85
2019-04-25T17:07:38.446Z,21.74
2019-04-25T17:10:07.361Z,21.57
2019-04-25T17:12:36.467Z,21.61
2019-04-25T17:15:16.383Z,21.35
2019-04-25T17:17:58.106Z,21.36
2019-04-25T17:20:29.882Z,21.55
2019-04-25T17:22:59.126Z,21.44
2019-04-25T17:25:28.300Z,21.26
2019-04-25T17:27:57.029Z,21.26
2019-04-25T17:30:27.345Z,21.31
2019-04-25T17:33:09.669Z,21.20
2019-04-25T17:35:45.111Z,21.21
2019-04-25T17:38:20.325Z,21.16
2019-04-25T17:40:48.498Z,21.18
2019-04-25T17:43:16.654Z,21.19
2019-04-25T17:45:44.887Z,21.22
2019-04-25T17:48:14.008Z,21.20
2019-04-25T17:50:43.954Z,21.10
2019-04-25T17:53:12.250Z,21.08
2019-04-25T17:55:41.587Z,21.12
2019-04-25T17:58:09.902Z,21.06
2019-04-25T18:00:40.164Z,21.01
2019-04-25T18:03:10.784Z,20.93
2019-04-25T18:05:39.630Z,20.87
2019-04-25T18:08:07.868Z,20.84
2019-04-25T18:10:37.615Z,20.82
2019-04-25T18:13:09.196Z,20.78
2019-04-25T18:15:46.424Z,20.77
2019-04-25T18:18:45.659Z,20.71
2019-04-25T18:21:14.255Z,20.66
2019-04-25T18:24:00.697Z,20.59
2019-04-25T18:26:43.622Z,20.57
2019-04-25T18:29:13.117Z,20.47
2019-04-25T18:31:41.690Z,20.38
2019-04-25T18:34:15.562Z,20.32
2019-04-25T18:37:03.721Z,20.31
2019-04-25T18:39:39.870Z,20.26
2019-04-25T18:42:42.876Z,20.20
2019-04-25T18:45:19.740Z,20.15
2019-04-25T18:47:47.950Z,20.10
2019-04-25T18:50:18.438Z,20.05
2019-04-25T18:52:54.100Z,20.05
2019-04-25T18:55:28.869Z,19.99
2019-04-25T18:58:09.911Z,20.03
2019-04-25T19:00:52.382Z,20.01
2019-04-25T19:03:39.402Z,20.05
2019-04-25T19:06:11.309Z,20.13
2019-04-25T19:08:39.690Z,20.12
2019-04-25T19:11:09.187Z,20.15
2019-04-25T19:13:38.798Z,20.18
2019-04-25T19:16:08.194Z,20.13
2019-04-25T19:18:36.520Z,20.02
2019-04-25T19:21:05.446Z,20.05
2019-04-25T19:23:33.911Z,19.97
2019-04-25T19:26:02.148Z,19.91
2019-04-25T19:28:30.628Z,19.95
2019-04-25T19:30:58.993Z,19.86
2019-04-25T19:33:35.672Z,19.82
2019-04-25T19:35:57.431Z,19.75
2019-04-25T19:38:25.733Z,19.77
2019-04-25T19:41:12.513Z,19.73
2019-04-25T19:43:56.303Z,19.70
2019-04-25T19:46:37.539Z,19.71
2019-04-25T19:49:06.849Z,19.72
2019-04-25T19:51:35.583Z,19.69
2019-04-25T19:54:04.564Z,19.62
2019-04-25T19:56:33.111Z,19.58
2019-04-25T19:59:03.411Z,19.60
2019-04-25T20:01:32.752Z,19.54
2019-04-25T20:04:13.442Z,19.48
2019-04-25T20:07:02.217Z,19.45
2019-04-25T20:09:49.767Z,19.38
2019-04-25T20:12:19.092Z,19.33
2019-04-25T20:14:47.688Z,19.27
2019-04-25T20:17:15.867Z,19.23
2019-04-25T20:19:45.839Z,19.18
2019-04-25T20:22:15.752Z,19.13
2019-04-25T20:24:45.329Z,19.17
2019-04-25T20:27:14.247Z,19.14
2019-04-25T20:29:44.117Z,19.16
2019-04-25T20:32:13.324Z,19.08
2019-04-25T20:34:41.811Z,19.14
2019-04-25T20:37:10.021Z,19.08
2019-04-25T20:39:38.314Z,19.04
2019-04-25T20:42:06.800Z,19.00
2019-04-25T20:44:36.531Z,18.93
2019-04-25T20:47:05.453Z,18.88
2019-04-25T20:49:33.960Z,18.87
2019-04-25T20:52:02.158Z,18.88
2019-04-25T20:54:30.574Z,18.88
2019-04-25T20:56:59.307Z,18.81
2019-04-25T20:59:27.702Z,18.83
2019-04-25T21:01:56.238Z,18.82
2019-04-25T21:04:40.526Z,18.83
2019-04-25T21:07:09.231Z,18.82
2019-04-25T21:09:38.117Z,18.77
2019-04-25T21:12:07.027Z,18.78
2019-04-25T21:14:53.289Z,18.84
2019-04-25T21:17:43.832Z,18.76
2019-04-25T21:20:12.080Z,18.72
2019-04-25T21:22:40.694Z,18.73
2019-04-25T21:25:08.956Z,18.70
2019-04-25T21:27:37.513Z,18.65
2019-04-25T21:30:07.223Z,18.68
2019-04-25T21:32:55.488Z,18.58
2019-04-25T21:35:24.521Z,18.60
2019-04-25T21:37:53.564Z,18.63
2019-04-25T21:40:30.947Z,18.67
2019-04-25T21:43:04.437Z,18.55
2019-04-25T21:45:33.306Z,18.56
2019-04-25T21:48:01.676Z,18.58
2019-04-25T21:50:30.354Z,18.56
2019-04-25T21:52:59.150Z,18.56
2019-04-25T21:55:27.855Z,18.56
2019-04-25T21:57:56.697Z,18.51
2019-04-25T22:00:44.359Z,18.59
2019-04-25T22:03:15.814Z,18.48
2019-04-25T22:05:44.156Z,18.43
2019-04-25T22:08:12.336Z,18.46
2019-04-25T22:10:40.761Z,18.62
2019-04-25T22:13:16.371Z,18.50
2019-04-25T22:15:39.950Z,18.29
2019-04-25T22:18:08.648Z,18.18
2019-04-25T22:20:36.859Z,18.16
2019-04-25T22:23:05.560Z,18.24
2019-04-25T22:25:35.045Z,18.33
2019-04-25T22:28:03.831Z,18.23
2019-04-25T22:30:32.813Z,18.13
2019-04-25T22:33:21.530Z,18.17
2019-04-25T22:35:59.341Z,17.76
2019-04-25T22:38:28.601Z,17.53
2019-04-25T22:40:56.998Z,17.38
2019-04-25T22:43:25.571Z,17.18
2019-04-25T22:45:54.279Z,16.95
2019-04-25T22:48:45.192Z,16.89
2019-04-25T22:51:13.349Z,16.58
2019-04-25T22:53:41.785Z,16.56
2019-04-25T22:56:10.020Z,16.30
2019-04-25T22:58:38.673Z,16.23
2019-04-25T23:01:13.475Z,16.14
2019-04-25T23:03:44.047Z,16.13
2019-04-25T23:06:12.783Z,16.09
2019-04-25T23:08:40.977Z,15.98
2019-04-25T23:11:09.121Z,15.90
2019-04-25T23:13:37.358Z,15.82
2019-04-25T23:16:06.957Z,15.50
2019-04-25T23:18:35.528Z,15.63
2019-04-25T23:21:04.011Z,15.53
2019-04-25T23:23:34.279Z,15.58
2019-04-25T23:26:20.669Z,15.39
2019-04-25T23:28:50.668Z,15.44
2019-04-25T23:31:23.672Z,15.37
2019-04-25T23:33:52.239Z,15.44
2019-04-25T23:36:20.922Z,15.47
2019-04-25T23:38:49.145Z,15.45
2019-04-25T23:41:17.820Z,15.47
2019-04-25T23:43:46.166Z,15.52
2019-04-25T23:46:14.440Z,15.51
2019-04-25T23:48:42.925Z,15.41
2019-04-25T23:51:11.538Z,15.49
2019-04-25T23:53:40.037Z,15.30
2019-04-25T23:56:08.930Z,15.28
2019-04-25T23:58:37.716Z,15.26
